Capitol Logistics 3265


KSAV
Savannah/Hilton Head International Airport
Savannah, Georgia, US
KMIA
Miami International Airport
Miami, Florida, US

Activity Log

Date Flight Route Aircraft Duration
12/24/2019 CPX3265 KELER V437 OMN V3 FLL SF34 2h 10m
11/27/2019 CPX3265 KELER V437 OMN V3 FLL SF34 2h 04m
10/11/2019 CPX665 KELER V437 OMN V3 FLL SF34 1h 58m
09/24/2019 CPX665 KELER V437 OMN V3 FLL SF34 1h 46m
05/02/2019 CPX665 OMN PHK SF34 1h 32m
03/24/2019 CPX665 KELER V437 OMN V3 FLL SF34 1h 52m

Route Details

Aircraft Information
Primary: Saab 340AF
Backup: Not Available
Route Data
Distance: 382nm
Sched. Duration: 2h 20m
Avg. Duration: 1h 67m (-53m)
Times Flown: 6
Recm'd Route: KELER V437 OMN V3 FLL
Planned Altitude: 17,000ft
Origin Wx: KSAV 281053Z 28004KT 10SM CLR 01/M02 A3021 RMK AO2 SLP229 T00111017
Dest. Wx: KMIA 281053Z 33008G16KT 10SM FEW050 11/03 A3021 RMK AO2 SLP231 T01110033
Notes:

Financial History
Total Freight: 38,335lbs
Average Load: 6,389lbs/flt
Fuel Used: 10,167lbs
Avg. Fuel Used: 1,695lbs/flt
Fuel Expense: $9,659
Avg. Fuel Expense: $1,610
Avg. Fuel Cost: $0.95/lbs
Total Gross Income: $44,469
Pilot Pay: $1,254
Total Expenses: $5,115
Total Revenue: $27,124
Average Revenue: $7,411.43